createdAt,value
2022-07-29T00:00:21.577Z,46.10
2022-07-29T00:01:19.147Z,46.10
2022-07-29T00:02:05.273Z,46.20
2022-07-29T00:02:57.209Z,46.30
2022-07-29T00:03:49.007Z,46.20
2022-07-29T00:04:40.935Z,46.10
2022-07-29T00:05:32.683Z,46.00
2022-07-29T00:06:24.536Z,45.80
2022-07-29T00:07:16.400Z,45.70
2022-07-29T00:08:12.216Z,45.70
2022-07-29T00:09:00.100Z,45.50
2022-07-29T00:09:52.689Z,45.50
2022-07-29T00:10:43.813Z,45.40
2022-07-29T00:11:35.681Z,45.30
2022-07-29T00:12:27.528Z,45.20
2022-07-29T00:13:19.388Z,45.10
2022-07-29T00:14:11.252Z,45.10
2022-07-29T00:15:03.107Z,45.00
2022-07-29T00:15:55.154Z,45.00
2022-07-29T00:16:46.925Z,45.20
2022-07-29T00:17:38.640Z,45.50
2022-07-29T00:18:30.581Z,45.10
2022-07-29T00:19:22.476Z,45.00
2022-07-29T00:20:14.303Z,45.00
2022-07-29T00:21:06.181Z,45.00
2022-07-29T00:21:57.960Z,45.00
2022-07-29T00:22:49.915Z,45.00
2022-07-29T00:23:41.790Z,44.80
2022-07-29T00:24:33.646Z,44.70
2022-07-29T00:25:25.504Z,44.70
2022-07-29T00:26:17.375Z,44.80
2022-07-29T00:27:09.239Z,44.70
2022-07-29T00:28:01.111Z,44.80
2022-07-29T00:29:17.222Z,44.90
2022-07-29T00:29:44.852Z,44.90
2022-07-29T00:30:36.698Z,45.00
2022-07-29T00:31:28.559Z,44.90
2022-07-29T00:32:20.407Z,45.00
2022-07-29T00:33:12.284Z,44.80
2022-07-29T00:34:04.128Z,44.90
2022-07-29T00:34:56.013Z,44.80
2022-07-29T00:35:47.847Z,44.80
2022-07-29T00:36:39.721Z,44.80
2022-07-29T00:37:31.567Z,44.80
2022-07-29T00:38:23.456Z,44.70
2022-07-29T00:39:15.303Z,44.80
2022-07-29T00:40:07.176Z,44.80
2022-07-29T00:40:59.035Z,44.90
2022-07-29T00:41:50.904Z,44.90
2022-07-29T00:42:42.763Z,45.00
2022-07-29T00:43:34.619Z,45.10
2022-07-29T00:44:26.475Z,45.00
2022-07-29T00:45:18.337Z,45.00
2022-07-29T00:46:10.239Z,45.00
2022-07-29T00:47:02.158Z,45.00
2022-07-29T00:47:53.923Z,45.00
2022-07-29T00:48:45.890Z,45.10
2022-07-29T00:49:37.686Z,45.10
2022-07-29T00:50:29.552Z,45.10
2022-07-29T00:51:21.401Z,45.10
2022-07-29T00:52:13.725Z,45.10
2022-07-29T00:53:05.093Z,45.10
2022-07-29T00:53:56.966Z,45.10
2022-07-29T00:54:48.807Z,45.20
2022-07-29T00:55:40.682Z,45.30
2022-07-29T00:56:32.551Z,45.30
2022-07-29T00:57:24.396Z,45.40
2022-07-29T00:58:16.246Z,45.40
2022-07-29T00:59:08.043Z,45.40
2022-07-29T00:59:59.963Z,45.40
2022-07-29T01:00:51.930Z,45.40
2022-07-29T01:01:43.755Z,45.40
2022-07-29T01:02:35.661Z,45.40
2022-07-29T01:03:27.383Z,45.40
2022-07-29T01:04:19.340Z,45.40
2022-07-29T01:05:11.105Z,45.40
2022-07-29T01:06:02.970Z,45.40
2022-07-29T01:06:54.826Z,45.40
2022-07-29T01:07:46.686Z,45.30
2022-07-29T01:08:38.488Z,45.30
2022-07-29T01:09:35.051Z,45.30
2022-07-29T01:10:22.247Z,45.40
2022-07-29T01:11:14.139Z,45.40
2022-07-29T01:12:05.959Z,45.40
2022-07-29T01:12:57.838Z,45.40
2022-07-29T01:13:49.677Z,45.50
2022-07-29T01:14:41.566Z,45.50
2022-07-29T01:15:33.377Z,45.40
2022-07-29T01:16:25.287Z,45.40
2022-07-29T01:17:17.106Z,45.40
2022-07-29T01:18:08.968Z,45.40
2022-07-29T01:19:00.812Z,45.40
2022-07-29T01:19:52.678Z,45.30
2022-07-29T01:20:44.526Z,45.30
2022-07-29T01:21:36.401Z,45.30
2022-07-29T01:22:28.157Z,45.20
2022-07-29T01:23:20.113Z,45.20
2022-07-29T01:24:12.005Z,45.30
2022-07-29T01:25:03.829Z,45.30
2022-07-29T01:25:56.120Z,45.30
2022-07-29T01:26:47.539Z,45.40
2022-07-29T01:27:39.382Z,45.40
2022-07-29T01:28:31.238Z,45.40
2022-07-29T01:29:23.100Z,45.40
2022-07-29T01:30:15.591Z,45.50
2022-07-29T01:31:06.873Z,45.50
2022-07-29T01:32:00.994Z,45.40
2022-07-29T01:32:50.494Z,45.30
2022-07-29T01:33:42.350Z,45.30
2022-07-29T01:34:34.205Z,45.40
2022-07-29T01:35:26.057Z,45.50
2022-07-29T01:36:17.930Z,45.50
2022-07-29T01:37:09.799Z,45.50
2022-07-29T01:38:01.602Z,45.50
2022-07-29T01:38:53.477Z,45.50
2022-07-29T01:39:45.308Z,45.50
2022-07-29T01:40:37.181Z,45.50
2022-07-29T01:41:28.975Z,45.60
2022-07-29T01:42:20.885Z,45.50
2022-07-29T01:43:12.725Z,45.50
2022-07-29T01:44:04.582Z,45.50
2022-07-29T01:44:56.427Z,45.60
2022-07-29T01:45:48.211Z,45.60
2022-07-29T01:46:40.177Z,45.50
2022-07-29T01:47:32.000Z,45.60
2022-07-29T01:48:23.835Z,45.60
2022-07-29T01:49:15.794Z,45.70
2022-07-29T01:50:07.552Z,45.50
2022-07-29T01:50:59.408Z,45.50
2022-07-29T01:51:51.234Z,45.60
2022-07-29T01:52:43.128Z,45.60
2022-07-29T01:53:38.305Z,45.60
2022-07-29T01:54:26.810Z,45.70
2022-07-29T01:55:18.586Z,45.60
2022-07-29T01:56:10.498Z,45.60
2022-07-29T01:57:02.343Z,45.50
2022-07-29T01:57:54.202Z,45.50
2022-07-29T01:58:46.049Z,45.50
2022-07-29T01:59:37.905Z,45.60
2022-07-29T02:00:29.742Z,45.60
2022-07-29T02:01:21.659Z,45.70
2022-07-29T02:02:13.607Z,45.60
2022-07-29T02:03:05.299Z,45.60
2022-07-29T02:03:57.149Z,45.70
2022-07-29T02:04:49.024Z,45.70
2022-07-29T02:05:40.853Z,45.60
2022-07-29T02:06:32.720Z,45.60
2022-07-29T02:07:24.555Z,45.70
2022-07-29T02:08:16.419Z,45.80
2022-07-29T02:09:08.525Z,45.80
2022-07-29T02:10:00.181Z,45.80
2022-07-29T02:10:51.956Z,45.80
2022-07-29T02:11:43.842Z,45.70
2022-07-29T02:12:35.663Z,45.80
2022-07-29T02:13:27.528Z,45.70
2022-07-29T02:14:19.374Z,45.60
2022-07-29T02:15:11.228Z,45.60
2022-07-29T02:16:03.098Z,45.60
2022-07-29T02:16:54.924Z,45.60
2022-07-29T02:17:46.767Z,45.60
2022-07-29T02:18:38.561Z,45.70
2022-07-29T02:19:30.454Z,45.70
2022-07-29T02:20:22.339Z,45.70
2022-07-29T02:21:15.540Z,45.70
2022-07-29T02:22:06.019Z,45.60
2022-07-29T02:22:57.860Z,45.70
2022-07-29T02:23:51.438Z,45.70
2022-07-29T02:24:41.564Z,45.70
2022-07-29T02:25:38.071Z,45.70
2022-07-29T02:26:25.286Z,45.70
2022-07-29T02:27:17.145Z,45.70
2022-07-29T02:28:08.966Z,45.70
2022-07-29T02:29:00.834Z,45.70
2022-07-29T02:29:52.669Z,45.80
2022-07-29T02:30:44.681Z,45.80
2022-07-29T02:31:36.412Z,45.80
2022-07-29T02:32:28.154Z,45.90
2022-07-29T02:33:20.103Z,45.90
2022-07-29T02:34:12.043Z,45.90
2022-07-29T02:35:03.703Z,45.90
2022-07-29T02:35:55.643Z,46.00
2022-07-29T02:36:49.458Z,46.00
2022-07-29T02:37:39.356Z,46.00
2022-07-29T02:38:31.187Z,46.10
2022-07-29T02:39:23.047Z,46.10
2022-07-29T02:40:14.886Z,46.10
2022-07-29T02:41:06.744Z,46.00
2022-07-29T02:41:58.501Z,45.90
2022-07-29T02:42:50.463Z,45.90
2022-07-29T02:43:42.287Z,46.00
2022-07-29T02:44:34.686Z,45.90
2022-07-29T02:45:25.982Z,46.00
2022-07-29T02:46:28.449Z,46.00
2022-07-29T02:47:09.691Z,46.00
2022-07-29T02:48:01.557Z,45.90
2022-07-29T02:48:53.417Z,46.00
2022-07-29T02:49:45.244Z,45.90
2022-07-29T02:50:37.102Z,45.90
2022-07-29T02:51:44.085Z,46.00
2022-07-29T02:52:20.790Z,46.20
2022-07-29T02:53:12.658Z,46.20
2022-07-29T02:54:04.509Z,46.30
2022-07-29T02:54:56.338Z,46.20
2022-07-29T02:55:48.182Z,46.20
2022-07-29T02:56:40.043Z,46.20
2022-07-29T02:57:31.869Z,46.20
2022-07-29T02:58:23.740Z,46.30
2022-07-29T02:59:15.566Z,46.20
2022-07-29T03:00:07.394Z,46.30
2022-07-29T03:00:59.277Z,46.30
2022-07-29T03:01:51.183Z,46.40
2022-07-29T03:02:42.950Z,46.30
2022-07-29T03:03:34.806Z,46.30
2022-07-29T03:04:26.713Z,46.30
2022-07-29T03:05:18.515Z,46.40
2022-07-29T03:06:10.314Z,46.30
2022-07-29T03:07:02.178Z,46.30
2022-07-29T03:07:54.005Z,46.20
2022-07-29T03:08:45.861Z,46.30
2022-07-29T03:09:37.701Z,46.40
2022-07-29T03:10:29.553Z,46.30
2022-07-29T03:11:21.372Z,46.30
2022-07-29T03:12:13.241Z,46.20
2022-07-29T03:13:05.059Z,46.20
2022-07-29T03:13:56.904Z,46.10
2022-07-29T03:14:48.685Z,46.10
2022-07-29T03:15:40.698Z,46.00
2022-07-29T03:16:32.462Z,46.00
2022-07-29T03:17:24.299Z,46.10
2022-07-29T03:18:16.109Z,46.10
2022-07-29T03:19:07.973Z,46.10
2022-07-29T03:19:59.803Z,46.20
2022-07-29T03:20:51.671Z,46.10
2022-07-29T03:21:43.494Z,46.10
2022-07-29T03:22:35.350Z,46.10
2022-07-29T03:23:27.195Z,46.10
2022-07-29T03:24:19.467Z,46.10
2022-07-29T03:25:10.889Z,46.10
2022-07-29T03:26:02.743Z,46.10
2022-07-29T03:26:54.578Z,46.10
2022-07-29T03:27:46.438Z,46.20
2022-07-29T03:28:38.225Z,46.20
2022-07-29T03:29:33.585Z,46.20
2022-07-29T03:30:22.625Z,46.20
2022-07-29T03:31:13.902Z,46.20
2022-07-29T03:32:08.205Z,46.30
2022-07-29T03:32:58.808Z,46.30
2022-07-29T03:33:49.360Z,46.20
2022-07-29T03:34:41.212Z,46.20
2022-07-29T03:35:33.058Z,46.20
2022-07-29T03:36:24.918Z,46.30
2022-07-29T03:37:16.753Z,46.40
2022-07-29T03:38:08.564Z,46.50
2022-07-29T03:39:00.456Z,46.50
2022-07-29T03:39:52.325Z,46.60
2022-07-29T03:40:44.157Z,46.50
2022-07-29T03:41:36.022Z,46.50
2022-07-29T03:42:32.423Z,46.60
2022-07-29T03:43:19.708Z,46.60
2022-07-29T03:44:11.550Z,46.60
2022-07-29T03:45:03.336Z,46.60
2022-07-29T03:45:55.306Z,46.60
2022-07-29T03:46:47.156Z,46.60
2022-07-29T03:47:50.655Z,46.50
2022-07-29T03:48:30.796Z,46.50
2022-07-29T03:49:22.751Z,46.50
2022-07-29T03:50:14.506Z,46.50
2022-07-29T03:51:06.329Z,46.40
2022-07-29T03:51:58.189Z,46.40
2022-07-29T03:52:50.020Z,46.40
2022-07-29T03:53:41.885Z,46.30
2022-07-29T03:54:33.724Z,46.40
2022-07-29T03:55:25.585Z,46.40
2022-07-29T03:56:17.408Z,46.40
2022-07-29T03:57:09.267Z,46.40
2022-07-29T03:58:01.110Z,46.40
2022-07-29T03:58:52.957Z,46.40
2022-07-29T03:59:44.784Z,46.40
2022-07-29T04:00:36.594Z,46.30
2022-07-29T04:01:28.424Z,46.30
2022-07-29T04:02:22.986Z,46.30
2022-07-29T04:03:12.270Z,46.30
2022-07-29T04:04:04.063Z,46.30
2022-07-29T04:04:55.856Z,46.30
2022-07-29T04:05:47.711Z,46.30
2022-07-29T04:06:39.537Z,46.20
2022-07-29T04:07:31.401Z,46.20
2022-07-29T04:08:23.228Z,46.30
2022-07-29T04:09:15.086Z,46.30
2022-07-29T04:10:06.918Z,46.30
2022-07-29T04:10:58.772Z,46.30
2022-07-29T04:12:01.492Z,46.40
2022-07-29T04:12:42.469Z,46.40
2022-07-29T04:13:34.295Z,46.30
2022-07-29T04:14:26.146Z,46.30
2022-07-29T04:15:17.987Z,46.30
2022-07-29T04:16:09.903Z,46.40
2022-07-29T04:17:01.673Z,46.40
2022-07-29T04:17:53.561Z,46.50
2022-07-29T04:18:45.354Z,46.60
2022-07-29T04:19:37.216Z,46.60
2022-07-29T04:20:29.053Z,46.60
2022-07-29T04:21:20.921Z,46.60
2022-07-29T04:22:12.743Z,46.60
2022-07-29T04:23:04.605Z,46.60
2022-07-29T04:23:56.429Z,46.70
2022-07-29T04:24:48.295Z,46.70
2022-07-29T04:25:40.132Z,46.60
2022-07-29T04:26:31.968Z,46.60
2022-07-29T04:27:23.805Z,46.60
2022-07-29T04:28:15.725Z,46.60
2022-07-29T04:29:07.482Z,46.70
2022-07-29T04:29:59.343Z,46.60
2022-07-29T04:30:51.193Z,46.60
2022-07-29T04:31:43.120Z,46.60
2022-07-29T04:32:34.869Z,46.60
2022-07-29T04:33:26.726Z,46.60
2022-07-29T04:34:19.076Z,46.70
2022-07-29T04:35:10.409Z,46.70
2022-07-29T04:36:02.243Z,46.70
2022-07-29T04:36:54.101Z,47.20
2022-07-29T04:37:45.927Z,46.90
2022-07-29T04:38:37.801Z,47.20
2022-07-29T04:39:30.513Z,46.80
2022-07-29T04:40:21.469Z,46.80
2022-07-29T04:41:13.290Z,46.60
2022-07-29T04:42:05.157Z,46.60
2022-07-29T04:42:57.007Z,46.60
2022-07-29T04:43:48.756Z,46.60
2022-07-29T04:44:42.862Z,46.60
2022-07-29T04:45:32.520Z,46.60
2022-07-29T04:46:24.429Z,46.60
2022-07-29T04:47:16.200Z,46.60
2022-07-29T04:48:08.044Z,46.60
2022-07-29T04:48:59.983Z,46.60
2022-07-29T04:49:51.733Z,46.60
2022-07-29T04:50:43.575Z,46.60
2022-07-29T04:51:35.404Z,46.60
2022-07-29T04:52:27.253Z,46.60
2022-07-29T04:53:19.074Z,46.60
2022-07-29T04:54:10.942Z,46.60
2022-07-29T04:55:02.725Z,46.60
2022-07-29T04:55:54.632Z,46.60
2022-07-29T04:56:46.452Z,46.60
2022-07-29T04:57:38.318Z,46.60
2022-07-29T04:58:30.128Z,46.60
2022-07-29T04:59:21.990Z,46.60
2022-07-29T05:00:13.816Z,46.60
2022-07-29T05:01:05.746Z,46.50
2022-07-29T05:01:57.596Z,46.60
2022-07-29T05:02:49.444Z,46.60
2022-07-29T05:03:41.214Z,46.60
2022-07-29T05:04:33.061Z,46.60
2022-07-29T05:05:24.886Z,46.60
2022-07-29T05:06:16.739Z,46.70
2022-07-29T05:07:08.488Z,46.60
2022-07-29T05:08:00.418Z,46.70
2022-07-29T05:08:52.246Z,46.60
2022-07-29T05:09:44.107Z,46.60
2022-07-29T05:10:35.944Z,46.60
2022-07-29T05:11:30.580Z,46.60
2022-07-29T05:12:19.615Z,46.60
2022-07-29T05:13:11.476Z,46.60
2022-07-29T05:14:03.293Z,46.70
2022-07-29T05:14:55.146Z,46.70
2022-07-29T05:15:47.030Z,46.80
2022-07-29T05:16:38.773Z,46.70
2022-07-29T05:17:30.656Z,46.80
2022-07-29T05:18:22.512Z,46.80
2022-07-29T05:19:14.871Z,46.60
2022-07-29T05:20:06.220Z,46.70
2022-07-29T05:20:58.052Z,46.60
2022-07-29T05:21:49.891Z,46.70
2022-07-29T05:22:41.724Z,46.70
2022-07-29T05:23:33.572Z,46.80
2022-07-29T05:24:25.410Z,46.80
2022-07-29T05:25:17.265Z,46.80
2022-07-29T05:26:09.073Z,46.80
2022-07-29T05:27:00.944Z,46.90
2022-07-29T05:27:52.773Z,46.90
2022-07-29T05:28:44.632Z,46.90
2022-07-29T05:29:44.322Z,46.90
2022-07-29T05:30:28.330Z,47.00
2022-07-29T05:31:20.295Z,47.00
2022-07-29T05:32:12.026Z,47.00
2022-07-29T05:33:03.836Z,47.00
2022-07-29T05:33:55.679Z,47.00
2022-07-29T05:34:51.137Z,46.90
2022-07-29T05:35:39.368Z,46.90
2022-07-29T05:36:31.202Z,46.90
2022-07-29T05:37:23.064Z,47.00
2022-07-29T05:38:14.891Z,47.00
2022-07-29T05:39:06.759Z,47.00
2022-07-29T05:39:59.110Z,46.90
2022-07-29T05:40:50.441Z,46.80
2022-07-29T05:41:42.263Z,46.90
2022-07-29T05:42:34.122Z,46.80
2022-07-29T05:43:25.955Z,46.80
2022-07-29T05:44:18.071Z,46.80
2022-07-29T05:45:09.647Z,46.80
2022-07-29T05:46:01.570Z,46.80
2022-07-29T05:46:53.339Z,46.80
2022-07-29T05:47:45.200Z,46.70
2022-07-29T05:48:37.097Z,46.70
2022-07-29T05:49:28.850Z,46.70
2022-07-29T05:50:20.715Z,46.70
2022-07-29T05:51:12.579Z,46.90
2022-07-29T05:52:04.413Z,46.90
2022-07-29T05:52:56.273Z,46.90
2022-07-29T05:53:48.106Z,46.80
2022-07-29T05:54:39.974Z,46.80
2022-07-29T05:55:31.806Z,46.80
2022-07-29T05:56:23.656Z,46.90
2022-07-29T05:57:15.483Z,46.90
2022-07-29T05:58:07.349Z,46.90
2022-07-29T05:58:59.126Z,46.90
2022-07-29T05:59:51.067Z,47.00
2022-07-29T06:00:42.896Z,47.00
2022-07-29T06:01:34.786Z,47.00
2022-07-29T06:02:26.570Z,47.10
2022-07-29T06:03:18.452Z,47.10
2022-07-29T06:04:10.226Z,47.10
2022-07-29T06:05:02.295Z,47.00
2022-07-29T06:05:53.959Z,47.10
2022-07-29T06:06:45.803Z,47.10
2022-07-29T06:07:37.642Z,47.10
2022-07-29T06:08:29.508Z,47.10
2022-07-29T06:09:21.324Z,47.20
2022-07-29T06:10:13.177Z,47.20
2022-07-29T06:11:05.057Z,47.20
2022-07-29T06:11:56.854Z,47.20
2022-07-29T06:12:48.597Z,47.20
2022-07-29T06:13:40.535Z,47.20
2022-07-29T06:14:32.368Z,47.20
2022-07-29T06:15:24.220Z,47.20
2022-07-29T06:16:16.161Z,47.20
2022-07-29T06:17:07.924Z,47.40
2022-07-29T06:18:01.235Z,47.40
2022-07-29T06:18:51.588Z,47.40
2022-07-29T06:19:43.424Z,47.30
2022-07-29T06:20:35.274Z,47.30
2022-07-29T06:21:27.115Z,47.30
2022-07-29T06:22:18.931Z,47.30
2022-07-29T06:23:10.823Z,47.30
2022-07-29T06:24:02.668Z,47.40
2022-07-29T06:24:54.486Z,47.50
2022-07-29T06:25:46.365Z,47.70
2022-07-29T06:26:39.981Z,47.60
2022-07-29T06:27:30.041Z,47.60
2022-07-29T06:28:21.878Z,47.60
2022-07-29T06:29:13.734Z,47.70
2022-07-29T06:30:05.563Z,47.70
2022-07-29T06:30:57.455Z,47.70
2022-07-29T06:31:49.249Z,47.70
2022-07-29T06:32:43.181Z,47.70
2022-07-29T06:33:32.927Z,47.70
2022-07-29T06:34:24.778Z,47.70
2022-07-29T06:35:41.714Z,47.80
2022-07-29T06:36:08.461Z,47.80
2022-07-29T06:37:00.276Z,47.90
2022-07-29T06:37:52.118Z,48.10
2022-07-29T06:38:49.479Z,48.30
2022-07-29T06:39:35.789Z,48.20
2022-07-29T06:40:27.627Z,48.40
2022-07-29T06:41:19.456Z,48.00
2022-07-29T06:42:11.281Z,47.90
2022-07-29T06:43:03.120Z,48.00
2022-07-29T06:43:55.377Z,48.10
2022-07-29T06:44:46.798Z,48.10
2022-07-29T06:45:38.591Z,47.90
2022-07-29T06:46:30.541Z,48.00
2022-07-29T06:47:22.270Z,48.20
2022-07-29T06:48:14.119Z,48.20
2022-07-29T06:49:06.033Z,48.10
2022-07-29T06:49:57.787Z,48.20
2022-07-29T06:50:49.598Z,48.10
2022-07-29T06:51:41.450Z,48.10
2022-07-29T06:52:33.277Z,48.10
2022-07-29T06:53:25.119Z,48.10
2022-07-29T06:54:17.481Z,48.10
2022-07-29T06:55:08.721Z,48.10
2022-07-29T06:56:00.613Z,48.10
2022-07-29T06:56:52.460Z,48.10
2022-07-29T06:57:44.297Z,48.10
2022-07-29T06:58:36.139Z,48.10
2022-07-29T06:59:35.065Z,48.00
2022-07-29T07:00:19.811Z,48.00
2022-07-29T07:01:11.741Z,48.00
2022-07-29T07:02:03.533Z,48.10
2022-07-29T07:02:55.334Z,48.10
2022-07-29T07:03:47.157Z,48.20
2022-07-29T07:04:38.919Z,48.10
2022-07-29T07:05:30.841Z,48.10
2022-07-29T07:06:22.667Z,48.10
2022-07-29T07:07:14.528Z,48.00
2022-07-29T07:08:06.340Z,48.00
2022-07-29T07:08:58.182Z,48.00
2022-07-29T07:09:50.003Z,48.10
2022-07-29T07:10:41.846Z,48.10
2022-07-29T07:11:33.674Z,48.10
2022-07-29T07:12:25.529Z,48.20
2022-07-29T07:13:17.347Z,48.20
2022-07-29T07:14:09.128Z,48.20
2022-07-29T07:15:01.019Z,48.30
2022-07-29T07:15:52.872Z,48.30
2022-07-29T07:16:44.828Z,48.30
2022-07-29T07:17:36.556Z,48.30
2022-07-29T07:18:28.377Z,48.30
2022-07-29T07:19:20.242Z,48.20
2022-07-29T07:20:12.321Z,48.20
2022-07-29T07:21:03.931Z,48.30
2022-07-29T07:21:55.777Z,48.20
2022-07-29T07:22:47.601Z,48.20
2022-07-29T07:23:39.430Z,48.30
2022-07-29T07:24:31.276Z,48.30
2022-07-29T07:25:23.106Z,48.30
2022-07-29T07:26:14.955Z,48.30
2022-07-29T07:27:06.780Z,48.30
2022-07-29T07:27:58.637Z,48.30
2022-07-29T07:28:50.452Z,48.20
2022-07-29T07:29:43.519Z,48.20
2022-07-29T07:30:34.142Z,48.10
2022-07-29T07:31:26.108Z,48.10
2022-07-29T07:32:17.866Z,48.20
2022-07-29T07:33:09.642Z,48.20
2022-07-29T07:34:01.464Z,48.20
2022-07-29T07:34:53.317Z,48.30
2022-07-29T07:35:45.148Z,48.30
2022-07-29T07:36:36.992Z,48.30
2022-07-29T07:37:28.737Z,48.30
2022-07-29T07:38:20.683Z,48.30
2022-07-29T07:39:12.501Z,48.40
2022-07-29T07:40:04.280Z,48.40
2022-07-29T07:40:56.173Z,48.40
2022-07-29T07:41:48.027Z,48.30
2022-07-29T07:42:39.851Z,48.30
2022-07-29T07:43:31.714Z,48.30
2022-07-29T07:44:23.878Z,48.30
2022-07-29T07:45:16.505Z,48.30
2022-07-29T07:46:07.356Z,48.40
2022-07-29T07:46:58.967Z,48.20
2022-07-29T07:47:50.917Z,48.20
2022-07-29T07:48:42.761Z,48.20
2022-07-29T07:49:34.556Z,48.10
2022-07-29T07:50:26.407Z,48.20
2022-07-29T07:51:18.234Z,48.30
2022-07-29T07:52:10.092Z,48.40
2022-07-29T07:53:01.911Z,48.40
2022-07-29T07:53:53.760Z,48.50
2022-07-29T07:54:45.592Z,48.50
2022-07-29T07:56:00.434Z,48.50
2022-07-29T07:56:34.772Z,48.60
2022-07-29T07:57:21.124Z,48.60
2022-07-29T07:58:12.948Z,48.60
2022-07-29T07:59:04.815Z,48.60
2022-07-29T07:59:56.623Z,48.60
2022-07-29T08:00:48.759Z,48.70
2022-07-29T08:01:47.584Z,48.80
2022-07-29T08:02:32.217Z,48.70
2022-07-29T08:03:23.982Z,48.60
2022-07-29T08:04:16.171Z,48.50
2022-07-29T08:05:07.670Z,48.50
2022-07-29T08:05:59.525Z,48.50
2022-07-29T08:06:51.355Z,48.50
2022-07-29T08:07:43.214Z,48.50
2022-07-29T08:08:35.035Z,48.60
2022-07-29T08:09:29.412Z,48.50
2022-07-29T08:10:18.709Z,48.50
2022-07-29T08:11:10.595Z,48.50
2022-07-29T08:12:02.407Z,48.50
2022-07-29T08:12:54.302Z,48.60
2022-07-29T08:13:46.099Z,48.50
2022-07-29T08:14:37.954Z,48.50
2022-07-29T08:15:29.778Z,48.50
2022-07-29T08:16:21.654Z,48.50
2022-07-29T08:17:13.465Z,48.50
2022-07-29T08:18:08.348Z,48.60
2022-07-29T08:18:57.131Z,48.60
2022-07-29T08:19:48.924Z,48.50
2022-07-29T08:20:40.812Z,48.60
2022-07-29T08:21:32.695Z,48.70
2022-07-29T08:22:24.501Z,48.70
2022-07-29T08:23:16.355Z,49.10
2022-07-29T08:24:08.170Z,49.00
2022-07-29T08:25:00.044Z,48.80
2022-07-29T08:25:51.858Z,48.90
2022-07-29T08:26:43.719Z,48.80
2022-07-29T08:27:43.390Z,48.80
2022-07-29T08:28:27.397Z,48.80
2022-07-29T08:29:20.181Z,48.80
2022-07-29T08:30:11.256Z,48.80
2022-07-29T08:31:02.925Z,48.70
2022-07-29T08:31:55.103Z,48.70
2022-07-29T08:32:54.329Z,48.70
2022-07-29T08:33:38.497Z,48.60
2022-07-29T08:34:30.356Z,48.60
2022-07-29T08:35:22.198Z,48.50
2022-07-29T08:36:14.179Z,48.50
2022-07-29T08:37:05.912Z,48.50
2022-07-29T08:37:57.824Z,48.40
2022-07-29T08:38:49.634Z,48.30
2022-07-29T08:39:41.472Z,48.20
2022-07-29T08:40:33.345Z,48.20
2022-07-29T08:41:25.182Z,48.20
2022-07-29T08:42:17.065Z,48.10
2022-07-29T08:43:08.825Z,48.00
2022-07-29T08:44:00.780Z,48.00
2022-07-29T08:44:52.632Z,48.00
2022-07-29T08:45:47.211Z,47.90
2022-07-29T08:46:36.343Z,47.80
2022-07-29T08:47:28.219Z,47.90
2022-07-29T08:48:20.077Z,47.70
2022-07-29T08:49:12.013Z,47.80
2022-07-29T08:50:03.805Z,47.80
2022-07-29T08:50:55.669Z,47.80
2022-07-29T08:51:53.186Z,47.80
2022-07-29T08:52:39.309Z,47.70
2022-07-29T08:53:31.258Z,47.70
2022-07-29T08:54:23.134Z,47.60
2022-07-29T08:55:14.980Z,47.60
2022-07-29T08:56:06.856Z,47.60
2022-07-29T08:56:58.717Z,47.50
2022-07-29T08:57:51.940Z,47.60
2022-07-29T08:58:42.441Z,47.60
2022-07-29T08:59:34.309Z,47.50
2022-07-29T09:00:26.159Z,47.60
2022-07-29T09:01:18.112Z,47.50
2022-07-29T09:02:09.900Z,47.50
2022-07-29T09:03:01.772Z,47.60
2022-07-29T09:03:53.677Z,47.60
2022-07-29T09:04:45.496Z,47.70
2022-07-29T09:05:40.637Z,47.80
2022-07-29T09:06:29.193Z,48.00
2022-07-29T09:07:21.074Z,48.00
2022-07-29T09:08:12.952Z,48.10
2022-07-29T09:09:04.796Z,48.10
2022-07-29T09:09:56.683Z,48.20
2022-07-29T09:10:48.517Z,48.20
2022-07-29T09:11:40.389Z,48.30
2022-07-29T09:12:36.136Z,48.30
2022-07-29T09:13:24.105Z,48.40
2022-07-29T09:14:15.880Z,48.50
2022-07-29T09:15:07.817Z,48.60
2022-07-29T09:15:59.734Z,48.70
2022-07-29T09:16:53.626Z,48.80
2022-07-29T09:17:43.516Z,48.70
2022-07-29T09:18:35.250Z,48.90
2022-07-29T09:19:27.093Z,48.90
2022-07-29T09:20:18.968Z,48.90
2022-07-29T09:21:10.803Z,49.00
2022-07-29T09:22:03.515Z,49.10
2022-07-29T09:22:54.535Z,49.20
2022-07-29T09:23:46.343Z,49.20
2022-07-29T09:24:38.240Z,49.50
2022-07-29T09:25:30.120Z,50.00
2022-07-29T09:26:21.994Z,50.20
2022-07-29T09:27:13.810Z,50.20
2022-07-29T09:28:05.660Z,50.20
2022-07-29T09:28:57.502Z,50.30
2022-07-29T09:29:49.341Z,50.40
2022-07-29T09:30:41.213Z,50.40
2022-07-29T09:31:33.082Z,50.40
2022-07-29T09:32:24.910Z,50.50
2022-07-29T09:33:16.738Z,50.50
2022-07-29T09:34:08.610Z,50.60
2022-07-29T09:35:00.440Z,50.50
2022-07-29T09:35:56.358Z,50.40
2022-07-29T09:36:44.152Z,50.30
2022-07-29T09:37:36.012Z,50.40
2022-07-29T09:38:27.863Z,50.30
2022-07-29T09:39:19.611Z,50.30
2022-07-29T09:40:11.954Z,50.40
2022-07-29T09:41:06.246Z,50.40
2022-07-29T09:41:55.254Z,50.30
2022-07-29T09:42:47.112Z,50.30
2022-07-29T09:43:38.911Z,50.20
2022-07-29T09:44:30.833Z,50.20
2022-07-29T09:45:22.674Z,50.20
2022-07-29T09:46:14.557Z,50.20
2022-07-29T09:47:06.419Z,50.20
2022-07-29T09:47:58.256Z,50.10
2022-07-29T09:48:50.144Z,50.10
2022-07-29T09:49:41.950Z,50.10
2022-07-29T09:50:33.788Z,50.10
2022-07-29T09:51:37.772Z,50.00
2022-07-29T09:52:17.503Z,50.00
2022-07-29T09:53:09.295Z,50.00
2022-07-29T09:54:01.204Z,50.00
2022-07-29T09:54:53.097Z,50.00
2022-07-29T09:55:44.913Z,50.10
2022-07-29T09:56:36.785Z,50.20
2022-07-29T09:57:30.789Z,50.30
2022-07-29T09:58:20.500Z,50.30
2022-07-29T09:59:12.369Z,50.40
2022-07-29T10:00:04.196Z,50.50
2022-07-29T10:00:56.161Z,50.50
2022-07-29T10:01:47.923Z,50.60
2022-07-29T10:02:39.756Z,50.60
2022-07-29T10:03:31.841Z,50.60
2022-07-29T10:04:23.476Z,50.50
2022-07-29T10:05:15.358Z,51.20
2022-07-29T10:06:07.191Z,51.40
2022-07-29T10:07:04.209Z,51.50
2022-07-29T10:07:53.671Z,51.60
2022-07-29T10:08:42.754Z,51.80
2022-07-29T10:09:34.603Z,51.70
2022-07-29T10:10:26.457Z,51.90
2022-07-29T10:11:18.304Z,52.10
2022-07-29T10:12:10.216Z,52.20
2022-07-29T10:13:07.187Z,52.30
2022-07-29T10:13:53.945Z,52.30
2022-07-29T10:14:45.761Z,52.50
2022-07-29T10:15:37.562Z,52.60
2022-07-29T10:16:29.364Z,52.80
2022-07-29T10:17:21.218Z,52.90
2022-07-29T10:18:13.014Z,53.00
2022-07-29T10:19:04.846Z,52.90
2022-07-29T10:19:56.652Z,52.90
2022-07-29T10:20:48.469Z,52.90
2022-07-29T10:21:40.259Z,52.90
2022-07-29T10:22:52.582Z,52.90
2022-07-29T10:23:23.870Z,53.00
2022-07-29T10:24:15.715Z,52.80
2022-07-29T10:25:07.488Z,53.00
2022-07-29T10:25:59.235Z,52.90
2022-07-29T10:26:51.097Z,53.00
2022-07-29T10:27:43.032Z,53.20
2022-07-29T10:28:34.719Z,53.10
2022-07-29T10:29:26.539Z,53.30
2022-07-29T10:30:18.352Z,53.10
2022-07-29T10:31:10.220Z,53.10
2022-07-29T10:32:01.962Z,53.30
2022-07-29T10:32:54.224Z,53.40
2022-07-29T10:33:45.582Z,53.40
2022-07-29T10:34:37.409Z,53.10
2022-07-29T10:35:29.141Z,52.90
2022-07-29T10:36:21.063Z,53.00
2022-07-29T10:37:12.829Z,53.00
2022-07-29T10:38:04.661Z,53.00
2022-07-29T10:38:56.470Z,53.00
2022-07-29T10:39:49.647Z,53.10
2022-07-29T10:40:41.257Z,53.10
2022-07-29T10:41:43.650Z,53.10
2022-07-29T10:42:33.449Z,53.10
2022-07-29T10:43:15.894Z,53.10
2022-07-29T10:44:07.335Z,53.20
2022-07-29T10:44:59.098Z,53.30
2022-07-29T10:45:50.974Z,53.10
2022-07-29T10:46:42.849Z,53.00
2022-07-29T10:47:35.409Z,52.90
2022-07-29T10:48:26.403Z,52.90
2022-07-29T10:49:18.361Z,52.90
2022-07-29T10:50:16.982Z,52.90
2022-07-29T10:51:01.839Z,53.10
2022-07-29T10:51:54.075Z,53.20
2022-07-29T10:52:45.461Z,53.20
2022-07-29T10:53:37.295Z,53.30
2022-07-29T10:54:29.027Z,53.20
2022-07-29T10:55:20.920Z,53.20
2022-07-29T10:56:16.085Z,53.20
2022-07-29T10:57:04.549Z,53.10
2022-07-29T10:57:56.360Z,53.10
2022-07-29T10:58:52.644Z,52.90
2022-07-29T10:59:39.973Z,52.80
2022-07-29T11:00:31.804Z,52.70
2022-07-29T11:01:37.187Z,52.80
2022-07-29T11:02:36.472Z,52.80
2022-07-29T11:03:10.915Z,52.90
2022-07-29T11:03:59.023Z,53.10
2022-07-29T11:04:50.862Z,53.10
2022-07-29T11:05:42.691Z,53.20
2022-07-29T11:06:34.496Z,53.00
2022-07-29T11:07:26.329Z,52.90